Ridge Farm, IL (61870)

11:04 AM CST on February 08, 2016 (GMT -0600)
APRSWXNET | | Change Station
CLOSE
Current Station
Personal Weather Station
Location: Westville, IL
Elevation: 662 ft
Nearby Weather Stations
Active Advisory: Special Statement

Elev 662 ft 40.05 °N, 87.63 °W | Updated 27 minutes ago

Overcast
Overcast
28 °F
Feels Like 22 °F
N
5
Wind Variable Wind from North
Gusts 10.0 mph

Today
High -- | Low -- °F
--% Chance of Precip.
Yesterday
High -- | Low -- °F
Precip. -- in
Pressure 29.74 in
Visibility 10.0 miles
Clouds Overcast 2000 ft
Windchill 22 °F
Dew Point 27 °F
Humidity 96%
Rainfall in
Snow Depth Not available.
6:52 AM 5:17 PM
New Moon, 0% visible
METAR KPRG 081655Z AUTO 30019G26KT 10SM -SN OVC020 M02/M05 A2974 RMK AO2 T10221052
Pressure 29.74 in
Visibility 10.0 miles
Clouds Overcast 2000 ft
Windchill 22 °F
Dew Point 27 °F
Humidity 96%
Rainfall in
Snow Depth Not available.
6:52 AM 5:17 PM
New Moon, 0% visible
METAR KPRG 081655Z AUTO 30019G26KT 10SM -SN OVC020 M02/M05 A2974 RMK AO2 T10221052

10-Day Weather Forecast

Almanac

Astronomy

Feb. 08, 2016 Rise Set
Actual Time
Civil Twilight
Nautical Twilight
Astronomical Twilight
Moon
Length of Visible Light
Length of Day
Tomorrow will be .
, % of the Moon is Illuminated

Today's Extremes

State Highs State Lows

Community

WunderPhotos

Upload Photos

1,891,471 photos uploaded!

WunderBlog® & News

Nearby

Air Quality

  Air Quality AQ Index Pollutant
Not available.

Snow Depth

Station Depth Elevation

Earthquake Activity

City Distance Mag. Time & Date
Minimum magnitude displayed is 2.5.

Coastal Water Temperatures

Place Temperature

Stations

Nearby Weather Stations

Station Location Temp. Windchill Dew Point Humidity Wind Precip. Elev Updated Type
                   

Watches & Warnings

Special Statement
Issued: 9:38 AM CST Feb. 8, 2016 – National Weather Service

Scattered snow showers will continue across central and southeast
Illinois through the afternoon. While accumulations will remain
minor... slick spots will develop on many area roadways as
temperatures fall through the 20s. Motorists are advised to drive
with caution. Slow down and plan on extra time to arrive at your
destination today.


Barnes

938 am CST Mon Feb 8 2016

Scattered snow showers will continue across central and southeast
Illinois through the afternoon. While accumulations will remain
minor... slick spots will develop on many area roadways as
temperatures fall through the 20s. Motorists are advised to drive
with caution. Slow down and plan on extra time to arrive at your
destination today.


Barnes